Flight Track Log - Related Links

Times and Time Zones

All times are in EDT time to prevent confusion due to time zone crossing. See the N536SB flight status page for this flight to view local times or setup timezone preferences in your user account.

Time Position Orientation Groundspeed Altitude Reporting Facility
EDT Latitude Longitude Course Direction KTS MPH feet Rate Location/Type
Sat 04:00:56 PM 39.8500 -86.2833 354° North 108 124 1,200  Level Indianapolis TRACON
Sat 04:02:13 PM 39.8853 -86.2878 354° North 129 148 2,100 863 Climbing Chicago Center
Sat 04:03:15 PM 39.9189 -86.2772 14° North 129 148 3,200 968 Climbing Chicago Center
Sat 04:04:17 PM 39.9358 -86.2381 61° Northeast 124 143 4,100 780 Climbing Chicago Center
Sat 04:05:18 PM 39.9550 -86.1953 60° Northeast 129 148 4,800 683 Climbing Chicago Center
Sat 04:06:20 PM 39.9758 -86.1464 61° Northeast 142 163 5,500 683 Climbing Chicago Center
Sat 04:07:21 PM 39.9972 -86.0992 59° Northeast 148 170 6,200 789 Climbing Chicago Center
Sat 04:08:14 PM 40.0167 -86.0500 63° Northeast 151 174 7,000 796 Climbing Indianapolis TRACON
Sat 04:09:14 PM 40.0333 -86.0000 66° East 153 176 7,700 700 Climbing Indianapolis TRACON
Sat 04:10:14 PM 40.0667 -85.9500 49° Northeast 152 175 8,400 600 Climbing Indianapolis TRACON
Sat 04:11:14 PM 40.0833 -85.9167 57° Northeast 155 178 8,900 227 Climbing Indianapolis TRACON
Sat 04:12:26 PM 40.1069 -85.8400 68° East 165 190 8,900  Level Indianapolis Center
Sat 04:13:28 PM 40.1239 -85.7769 71° East 176 203 8,900  Level Indianapolis Center
Sat 04:14:33 PM 40.1436 -85.7164 67° East 178 205 8,900  Level Chicago Center
Sat 04:15:35 PM 40.1619 -85.6558 68° East 178 205 8,900  Level Chicago Center
Sat 04:16:37 PM 40.1819 -85.5975 66° East 176 203 8,900  Level Chicago Center
Sat 04:17:38 PM 40.1997 -85.5383 69° East 174 200 8,900  Level Chicago Center
Sat 04:18:40 PM 40.2189 -85.4683 70° East 174 200 8,900  Level Chicago Center
Sat 04:19:42 PM 40.2372 -85.4089 68° East 175 201 8,900 49 Level Chicago Center
Sat 04:20:43 PM 40.2658 -85.3556 55° Northeast 177 204 9,000 75 Climbing Chicago Center
Sat 04:21:02 PM 40.2731 -85.3369 63° Northeast 176 203 9,000  Level Indianapolis Center
Sat 04:22:04 PM 40.2964 -85.2806 62° Northeast 177 204 9,000  Level Indianapolis Center
Sat 04:23:05 PM 40.3214 -85.2250 59° Northeast 175 201 9,000  Level Indianapolis Center
Sat 04:24:07 PM 40.3475 -85.1686 59° Northeast 178 205 9,000  Level Indianapolis Center
Sat 04:25:08 PM 40.3742 -85.1133 58° Northeast 179 206 9,000  Level Indianapolis Center
Sat 04:26:09 PM 40.3981 -85.0589 60° Northeast 173 199 9,000  Level Indianapolis Center
Sat 04:27:11 PM 40.4236 -85.0022 59° Northeast 177 204 9,000  Level Indianapolis Center
Sat 04:28:12 PM 40.4492 -84.9494 58° Northeast 172 198 9,000  Level Indianapolis Center
Sat 04:29:14 PM 40.4753 -84.8928 59° Northeast 174 200 9,000  Level Indianapolis Center
Sat 04:30:15 PM 40.5011 -84.8381 58° Northeast 174 200 9,000  Level Indianapolis Center
Sat 04:31:16 PM 40.5244 -84.7828 61° Northeast 172 198 9,000  Level Indianapolis Center
Sat 04:32:18 PM 40.5489 -84.7275 60° Northeast 172 198 9,000  Level Indianapolis Center
Sat 04:33:19 PM 40.5781 -84.6639 59° Northeast 171 197 9,000  Level Indianapolis Center
Sat 04:34:21 PM 40.6031 -84.6075 60° Northeast 175 201 9,000  Level Indianapolis Center
Sat 04:35:22 PM 40.6289 -84.5547 57° Northeast 173 199 9,000  Level Indianapolis Center
Sat 04:36:10 PM 40.6494 -84.5108 58° Northeast 176 203 9,000  Level Chicago Center

Login

Don't have an account? Register now (free) for customized features, flight alerts, and more!